KAQO

Llano Municipal Airport

Llano, Texas, USA
METAR KAQO 230750Z AUTO 00000KT 2 1/2SM BR OVC001 06/05 A3024 RMK AO2
Observed Flight Rules
Feb-23 @ 07:50 UTC (29 minutes ago) Instrument Flight Rules
Wind Visibility Clouds Conditions
Calm 2 1/2 miles
  • Overcast at 100' AGL
  • Mist
Temperatures Readings
Current 6°C / 43°F
Dewpoint 5°C / 41°F
Humidity 93%
Altimeter 30.24" Hg
Pressure 1024 hPa
Elevation 336
METAR KAQO 230750Z AUTO 00000KT 2 1/2SM BR OVC001 06/05 A3024 RMK AO2
Observed Flight Rules
Feb-23 @ 07:50 UTC
(29 minutes ago)
LIFR
Wind Visibility
Calm 2 1/2 miles
Clouds
  • Overcast at 100' AGL
Conditions
  • Mist
Temperature Dewpoint
6°C / 43°F 5°C / 41°F
Humidity Altimeter Pressure
93% 30.24" Hg 1024 hPa